createdAt,value
2023-05-09T00:00:19.880Z,25.83
2023-05-09T00:01:19.944Z,25.07
2023-05-09T00:02:19.983Z,24.99
2023-05-09T00:03:20.053Z,25.99
2023-05-09T00:04:20.051Z,26.43
2023-05-09T00:05:20.042Z,24.85
2023-05-09T00:06:20.034Z,25.53
2023-05-09T00:07:20.097Z,23.23
2023-05-09T00:08:20.115Z,24.35
2023-05-09T00:09:20.119Z,24.76
2023-05-09T00:10:20.165Z,25.40
2023-05-09T00:11:20.134Z,24.98
2023-05-09T00:12:20.188Z,25.32
2023-05-09T00:13:20.366Z,25.27
2023-05-09T00:14:20.200Z,24.19
2023-05-09T00:15:20.260Z,25.16
2023-05-09T00:16:20.267Z,24.74
2023-05-09T00:17:20.313Z,24.85
2023-05-09T00:18:20.314Z,25.20
2023-05-09T00:19:20.284Z,25.42
2023-05-09T00:20:20.405Z,24.71
2023-05-09T00:21:20.336Z,25.67
2023-05-09T00:22:20.411Z,26.31
2023-05-09T00:23:20.399Z,24.46
2023-05-09T00:24:20.417Z,24.57
2023-05-09T00:25:20.434Z,24.23
2023-05-09T00:26:20.416Z,23.68
2023-05-09T00:27:20.398Z,24.87
2023-05-09T00:28:20.457Z,24.22
2023-05-09T00:29:20.494Z,23.60
2023-05-09T00:30:20.480Z,24.94
2023-05-09T00:31:20.528Z,24.61
2023-05-09T00:32:20.507Z,23.70
2023-05-09T00:33:20.529Z,24.91
2023-05-09T00:34:20.530Z,24.29
2023-05-09T00:35:20.542Z,24.84
2023-05-09T00:36:20.619Z,23.80
2023-05-09T00:37:20.538Z,22.60
2023-05-09T00:38:20.523Z,22.74
2023-05-09T00:39:20.616Z,23.46
2023-05-09T00:40:20.625Z,24.44
2023-05-09T00:41:20.631Z,23.76
2023-05-09T00:42:20.660Z,24.58
2023-05-09T00:43:20.682Z,25.19
2023-05-09T00:44:20.749Z,24.33
2023-05-09T00:45:20.772Z,24.87
2023-05-09T00:46:20.741Z,25.53
2023-05-09T00:47:20.766Z,25.51
2023-05-09T00:48:20.876Z,25.30
2023-05-09T00:49:20.884Z,25.67
2023-05-09T00:50:20.972Z,24.58
2023-05-09T00:51:21.006Z,25.57
2023-05-09T00:52:21.057Z,23.61
2023-05-09T00:53:21.069Z,24.32
2023-05-09T00:54:21.108Z,24.42
2023-05-09T00:55:21.113Z,25.20
2023-05-09T00:56:21.179Z,25.17
2023-05-09T00:57:21.143Z,25.09
2023-05-09T00:58:21.168Z,21.89
2023-05-09T00:59:21.142Z,24.80
2023-05-09T01:00:21.153Z,25.06
2023-05-09T01:01:21.227Z,25.67
2023-05-09T01:02:21.266Z,25.86
2023-05-09T01:03:21.246Z,24.84
2023-05-09T01:04:21.193Z,24.99
2023-05-09T01:05:21.197Z,25.44
2023-05-09T01:06:21.233Z,25.40
2023-05-09T01:07:21.238Z,25.40
2023-05-09T01:08:21.697Z,26.05
2023-05-09T01:09:21.273Z,24.80
2023-05-09T01:10:21.298Z,24.16
2023-05-09T01:11:22.150Z,24.90
2023-05-09T01:12:21.349Z,25.80
2023-05-09T01:13:21.423Z,26.24
2023-05-09T01:14:21.409Z,24.65
2023-05-09T01:15:21.454Z,26.23
2023-05-09T01:16:21.601Z,25.95
2023-05-09T01:17:21.543Z,24.86
2023-05-09T01:18:21.683Z,25.31
2023-05-09T01:19:21.662Z,23.38
2023-05-09T01:20:21.696Z,25.72
2023-05-09T01:21:21.760Z,26.03
2023-05-09T01:22:21.730Z,26.65
2023-05-09T01:23:21.748Z,24.96
2023-05-09T01:24:21.785Z,27.00
2023-05-09T01:25:22.618Z,27.11
2023-05-09T01:26:21.745Z,25.05
2023-05-09T01:27:21.770Z,26.06
2023-05-09T01:28:21.794Z,26.12
2023-05-09T01:29:21.795Z,22.68
2023-05-09T01:30:21.893Z,24.75
2023-05-09T01:31:21.977Z,23.50
2023-05-09T01:32:22.007Z,23.88
2023-05-09T01:33:22.043Z,24.17
2023-05-09T01:34:22.100Z,24.90
2023-05-09T01:35:22.127Z,25.02
2023-05-09T01:36:22.106Z,23.42
2023-05-09T01:37:22.170Z,25.30
2023-05-09T01:38:22.175Z,25.70
2023-05-09T01:39:22.181Z,24.51
2023-05-09T01:40:22.272Z,24.22
2023-05-09T01:41:22.284Z,24.74
2023-05-09T01:42:22.344Z,25.53
2023-05-09T01:43:22.322Z,25.55
2023-05-09T01:44:22.285Z,24.80
2023-05-09T01:45:22.337Z,25.68
2023-05-09T01:46:22.448Z,25.10
2023-05-09T01:47:22.404Z,25.71
2023-05-09T01:48:22.488Z,24.65
2023-05-09T01:49:22.536Z,27.20
2023-05-09T01:50:22.482Z,26.10
2023-05-09T01:51:22.505Z,25.12
2023-05-09T01:52:22.516Z,25.46
2023-05-09T01:53:22.569Z,25.46
2023-05-09T01:54:22.592Z,25.91
2023-05-09T01:55:22.605Z,25.41
2023-05-09T01:56:22.679Z,26.73
2023-05-09T01:57:22.666Z,25.83
2023-05-09T01:58:22.688Z,25.20
2023-05-09T01:59:22.679Z,25.68
2023-05-09T02:00:22.677Z,24.95
2023-05-09T02:01:22.727Z,25.71
2023-05-09T02:02:22.850Z,26.97
2023-05-09T02:03:22.782Z,26.09
2023-05-09T02:04:22.721Z,26.43
2023-05-09T02:05:22.758Z,26.42
2023-05-09T02:06:22.834Z,25.35
2023-05-09T02:07:22.831Z,22.84
2023-05-09T02:08:22.818Z,24.36
2023-05-09T02:09:22.876Z,24.63
2023-05-09T02:10:22.906Z,23.33
2023-05-09T02:11:22.931Z,25.43
2023-05-09T02:12:23.059Z,25.15
2023-05-09T02:13:23.171Z,24.06
2023-05-09T02:14:23.033Z,25.71
2023-05-09T02:15:23.094Z,25.15
2023-05-09T02:16:23.144Z,24.12
2023-05-09T02:17:23.233Z,25.14
2023-05-09T02:18:23.204Z,26.03
2023-05-09T02:19:23.186Z,25.22
2023-05-09T02:20:23.226Z,25.68
2023-05-09T02:21:23.240Z,25.02
2023-05-09T02:22:23.263Z,24.83
2023-05-09T02:23:23.308Z,26.49
2023-05-09T02:24:23.284Z,25.33
2023-05-09T02:25:23.305Z,26.26
2023-05-09T02:26:23.298Z,26.00
2023-05-09T02:27:23.306Z,26.17
2023-05-09T02:28:23.379Z,25.46
2023-05-09T02:29:23.309Z,24.63
2023-05-09T02:30:23.377Z,25.71
2023-05-09T02:31:23.376Z,23.79
2023-05-09T02:32:23.395Z,23.50
2023-05-09T02:33:23.391Z,24.55
2023-05-09T02:34:23.398Z,23.89
2023-05-09T02:35:23.412Z,25.12
2023-05-09T02:36:23.463Z,24.93
2023-05-09T02:37:23.472Z,23.31
2023-05-09T02:38:23.623Z,24.36
2023-05-09T02:39:23.530Z,24.45
2023-05-09T02:40:23.544Z,23.84
2023-05-09T02:41:23.571Z,24.79
2023-05-09T02:42:23.595Z,23.61
2023-05-09T02:43:23.638Z,23.07
2023-05-09T02:44:23.693Z,22.30
2023-05-09T02:45:23.675Z,23.85
2023-05-09T02:46:23.711Z,23.24
2023-05-09T02:47:23.758Z,23.61
2023-05-09T02:48:23.707Z,21.63
2023-05-09T02:49:32.060Z,23.71
2023-05-09T02:50:24.727Z,22.66
2023-05-09T02:51:23.707Z,22.28
2023-05-09T02:52:23.688Z,21.42
2023-05-09T02:53:23.693Z,23.09
2023-05-09T02:54:23.674Z,22.07
2023-05-09T02:55:23.697Z,23.11
2023-05-09T02:56:23.648Z,23.58
2023-05-09T02:57:23.660Z,22.74
2023-05-09T02:58:23.646Z,23.05
2023-05-09T02:59:23.636Z,23.67
2023-05-09T03:00:23.692Z,24.03
2023-05-09T03:01:23.685Z,22.09
2023-05-09T03:02:23.751Z,20.58
2023-05-09T03:03:23.714Z,20.36
2023-05-09T03:04:23.653Z,21.68
2023-05-09T03:05:23.613Z,21.94
2023-05-09T03:06:23.624Z,21.79
2023-05-09T03:07:23.606Z,22.69
2023-05-09T03:08:23.574Z,21.10
2023-05-09T03:09:23.596Z,21.80
2023-05-09T03:10:23.604Z,22.82
2023-05-09T03:11:23.579Z,22.63
2023-05-09T03:12:23.623Z,21.67
2023-05-09T03:13:23.766Z,22.04
2023-05-09T03:14:23.629Z,21.91
2023-05-09T03:15:23.664Z,22.00
2023-05-09T03:16:24.063Z,23.40
2023-05-09T03:17:23.786Z,21.95
2023-05-09T03:18:23.856Z,21.70
2023-05-09T03:19:23.847Z,22.24
2023-05-09T03:20:23.901Z,23.33
2023-05-09T03:21:23.921Z,21.80
2023-05-09T03:22:23.951Z,22.43
2023-05-09T03:23:23.999Z,22.65
2023-05-09T03:24:23.960Z,22.10
2023-05-09T03:25:24.033Z,23.37
2023-05-09T03:26:24.044Z,21.41
2023-05-09T03:27:24.068Z,21.58
2023-05-09T03:28:24.170Z,21.06
2023-05-09T03:29:24.199Z,21.38
2023-05-09T03:30:24.178Z,21.76
2023-05-09T03:31:24.213Z,21.65
2023-05-09T03:32:24.335Z,22.02
2023-05-09T03:33:24.247Z,22.72
2023-05-09T03:34:24.255Z,20.53
2023-05-09T03:35:24.295Z,21.96
2023-05-09T03:36:24.338Z,21.94
2023-05-09T03:37:26.191Z,22.12
2023-05-09T03:38:24.547Z,20.40
2023-05-09T03:39:24.517Z,22.01
2023-05-09T03:40:24.522Z,21.63
2023-05-09T03:41:24.562Z,20.18
2023-05-09T03:42:24.617Z,21.07
2023-05-09T03:43:24.689Z,22.22
2023-05-09T03:44:24.760Z,21.59
2023-05-09T03:45:24.734Z,21.88
2023-05-09T03:46:24.829Z,21.52
2023-05-09T03:47:24.812Z,21.80
2023-05-09T03:48:24.904Z,21.71
2023-05-09T03:49:24.854Z,22.71
2023-05-09T03:50:24.855Z,21.74
2023-05-09T03:51:24.887Z,21.15
2023-05-09T03:52:25.015Z,21.92
2023-05-09T03:53:24.978Z,21.38
2023-05-09T03:54:25.127Z,21.54
2023-05-09T03:55:25.020Z,21.57
2023-05-09T03:56:25.030Z,22.80
2023-05-09T03:57:25.110Z,21.94
2023-05-09T03:58:25.084Z,21.02
2023-05-09T03:59:25.090Z,23.35
2023-05-09T04:00:25.105Z,23.75
2023-05-09T04:01:25.174Z,21.62
2023-05-09T04:02:25.235Z,21.42
2023-05-09T04:03:25.327Z,23.29
2023-05-09T04:04:25.359Z,23.29
2023-05-09T04:05:25.316Z,23.36
2023-05-09T04:06:25.381Z,23.30
2023-05-09T04:07:25.379Z,22.04
2023-05-09T04:08:25.409Z,24.40
2023-05-09T04:09:25.427Z,21.92
2023-05-09T04:10:25.449Z,22.52
2023-05-09T04:11:25.416Z,23.15
2023-05-09T04:12:25.475Z,23.25
2023-05-09T04:13:25.571Z,22.79
2023-05-09T04:14:25.534Z,23.04
2023-05-09T04:15:25.562Z,24.91
2023-05-09T04:16:25.613Z,24.71
2023-05-09T04:17:25.635Z,24.16
2023-05-09T04:18:25.664Z,25.21
2023-05-09T04:19:25.626Z,23.30
2023-05-09T04:20:25.718Z,24.60
2023-05-09T04:21:25.646Z,23.79
2023-05-09T04:22:25.715Z,23.74
2023-05-09T04:23:25.764Z,24.08
2023-05-09T04:24:25.783Z,24.54
2023-05-09T04:25:25.781Z,22.57
2023-05-09T04:26:25.793Z,23.92
2023-05-09T04:27:25.839Z,23.62
2023-05-09T04:28:25.942Z,22.94
2023-05-09T04:29:25.914Z,26.33
2023-05-09T04:30:25.978Z,25.47
2023-05-09T04:31:26.039Z,25.58
2023-05-09T04:32:26.006Z,25.54
2023-05-09T04:33:26.032Z,25.50
2023-05-09T04:34:25.992Z,26.15
2023-05-09T04:35:26.071Z,28.18
2023-05-09T04:36:26.104Z,25.44
2023-05-09T04:37:26.058Z,25.85
2023-05-09T04:38:26.217Z,26.16
2023-05-09T04:39:26.093Z,29.24
2023-05-09T04:40:27.042Z,30.82
2023-05-09T04:41:26.136Z,27.81
2023-05-09T04:42:26.150Z,25.25
2023-05-09T04:43:26.222Z,26.56
2023-05-09T04:44:26.237Z,25.56
2023-05-09T04:45:26.300Z,26.01
2023-05-09T04:46:26.348Z,25.46
2023-05-09T04:47:26.325Z,25.47
2023-05-09T04:48:26.321Z,24.95
2023-05-09T04:49:26.271Z,25.33
2023-05-09T04:50:26.306Z,32.24
2023-05-09T04:51:26.326Z,42.80
2023-05-09T04:52:26.415Z,32.91
2023-05-09T04:53:26.463Z,27.13
2023-05-09T04:54:26.422Z,24.70
2023-05-09T04:55:26.449Z,24.33
2023-05-09T04:56:26.415Z,23.24
2023-05-09T04:57:26.481Z,23.64
2023-05-09T04:58:26.538Z,24.25
2023-05-09T04:59:26.527Z,23.59
2023-05-09T05:00:26.540Z,23.76
2023-05-09T05:01:26.770Z,24.61
2023-05-09T05:02:26.699Z,23.60
2023-05-09T05:03:26.697Z,23.04
2023-05-09T05:04:26.752Z,23.16
2023-05-09T05:05:27.005Z,21.80
2023-05-09T05:06:26.800Z,23.01
2023-05-09T05:07:26.875Z,20.99
2023-05-09T05:08:26.967Z,24.50
2023-05-09T05:09:26.919Z,22.20
2023-05-09T05:10:26.981Z,23.09
2023-05-09T05:11:26.997Z,20.69
2023-05-09T05:12:27.096Z,23.03
2023-05-09T05:13:27.153Z,23.54
2023-05-09T05:14:27.163Z,21.68
2023-05-09T05:15:27.169Z,22.24
2023-05-09T05:16:27.246Z,22.09
2023-05-09T05:17:27.293Z,20.59
2023-05-09T05:18:27.278Z,23.70
2023-05-09T05:19:27.318Z,21.10
2023-05-09T05:20:27.366Z,23.57
2023-05-09T05:21:27.473Z,21.73
2023-05-09T05:22:27.523Z,20.87
2023-05-09T05:23:27.640Z,20.80
2023-05-09T05:24:27.700Z,22.16
2023-05-09T05:25:27.631Z,21.24
2023-05-09T05:26:28.254Z,21.28
2023-05-09T05:27:27.711Z,22.10
2023-05-09T05:28:27.727Z,21.83
2023-05-09T05:29:27.811Z,21.28
2023-05-09T05:30:27.912Z,22.13
2023-05-09T05:31:27.931Z,22.83
2023-05-09T05:32:28.016Z,22.27
2023-05-09T05:33:27.996Z,25.06
2023-05-09T05:34:28.074Z,25.90
2023-05-09T05:35:28.063Z,24.77
2023-05-09T05:36:28.081Z,23.74
2023-05-09T05:37:28.190Z,23.04
2023-05-09T05:38:28.171Z,23.61
2023-05-09T05:39:28.164Z,49.71
2023-05-09T05:40:29.310Z,36.23
2023-05-09T05:41:28.276Z,57.72
2023-05-09T05:42:28.337Z,55.39
2023-05-09T05:43:28.357Z,40.44
2023-05-09T05:44:28.411Z,28.11
2023-05-09T05:45:28.449Z,24.78
2023-05-09T05:46:28.516Z,22.41
2023-05-09T05:47:28.667Z,22.92
2023-05-09T05:48:28.617Z,24.35
2023-05-09T05:49:28.683Z,24.42
2023-05-09T05:50:28.720Z,24.84
2023-05-09T05:51:28.818Z,25.03
2023-05-09T05:52:28.784Z,24.96
2023-05-09T05:53:29.851Z,24.40
2023-05-09T05:54:28.881Z,25.44
2023-05-09T05:55:28.942Z,22.88
2023-05-09T05:56:29.025Z,25.57
2023-05-09T05:57:29.027Z,23.62
2023-05-09T05:58:29.098Z,24.40
2023-05-09T05:59:29.142Z,23.20
2023-05-09T06:00:29.291Z,24.57
2023-05-09T06:01:29.205Z,25.72
2023-05-09T06:02:29.308Z,24.51
2023-05-09T06:03:29.422Z,24.36
2023-05-09T06:04:29.261Z,24.78
2023-05-09T06:05:29.402Z,25.73
2023-05-09T06:06:29.476Z,25.10
2023-05-09T06:07:29.414Z,25.89
2023-05-09T06:08:29.812Z,24.20
2023-05-09T06:09:29.757Z,25.09
2023-05-09T06:10:29.657Z,25.75
2023-05-09T06:11:29.735Z,27.03
2023-05-09T06:12:29.741Z,26.04
2023-05-09T06:13:29.708Z,27.92
2023-05-09T06:14:29.692Z,28.85
2023-05-09T06:15:30.737Z,29.16
2023-05-09T06:16:29.780Z,27.26
2023-05-09T06:17:29.836Z,28.34
2023-05-09T06:18:29.831Z,27.66
2023-05-09T06:19:29.955Z,25.52
2023-05-09T06:20:29.996Z,26.19
2023-05-09T06:21:30.709Z,26.72
2023-05-09T06:22:31.748Z,25.98
2023-05-09T06:23:29.974Z,25.64
2023-05-09T06:24:35.722Z,27.98
2023-05-09T06:25:30.980Z,27.36
2023-05-09T06:26:29.998Z,26.88
2023-05-09T06:27:29.974Z,26.34
2023-05-09T06:28:30.088Z,25.50
2023-05-09T06:29:29.978Z,27.45
2023-05-09T06:30:30.263Z,25.97
2023-05-09T06:31:30.009Z,26.49
2023-05-09T06:32:30.006Z,25.66
2023-05-09T06:33:29.982Z,25.69
2023-05-09T06:34:29.973Z,27.26
2023-05-09T06:35:29.934Z,25.89
2023-05-09T06:36:29.984Z,25.88
2023-05-09T06:37:29.936Z,25.17
2023-05-09T06:38:30.277Z,114.18
2023-05-09T06:39:30.735Z,40.38
2023-05-09T06:40:30.751Z,35.58
2023-05-09T06:41:30.131Z,43.58
2023-05-09T06:42:30.139Z,43.93
2023-05-09T06:43:30.202Z,31.12
2023-05-09T06:44:30.526Z,25.67
2023-05-09T06:45:30.284Z,25.27
2023-05-09T06:46:30.289Z,25.41
2023-05-09T06:47:30.273Z,26.14
2023-05-09T06:48:30.335Z,23.64
2023-05-09T06:49:30.426Z,24.33
2023-05-09T06:50:32.832Z,24.04
2023-05-09T06:51:30.408Z,39.87
2023-05-09T06:52:30.327Z,26.21
2023-05-09T06:53:30.311Z,23.42
2023-05-09T06:54:30.357Z,23.52
2023-05-09T06:55:30.374Z,24.38
2023-05-09T06:56:30.286Z,23.40
2023-05-09T06:57:30.316Z,21.86
2023-05-09T06:58:30.278Z,22.83
2023-05-09T06:59:32.237Z,22.58
2023-05-09T07:00:30.344Z,24.06
2023-05-09T07:01:31.301Z,24.05
2023-05-09T07:02:30.353Z,24.65
2023-05-09T07:03:30.243Z,24.87
2023-05-09T07:04:30.251Z,22.46
2023-05-09T07:05:30.291Z,24.58
2023-05-09T07:06:30.313Z,23.62
2023-05-09T07:07:30.233Z,22.57
2023-05-09T07:08:30.205Z,23.35
2023-05-09T07:09:30.377Z,23.15
2023-05-09T07:10:30.456Z,22.01
2023-05-09T07:11:30.198Z,22.40
2023-05-09T07:12:30.172Z,20.50
2023-05-09T07:13:30.281Z,20.27
2023-05-09T07:14:30.273Z,19.60
2023-05-09T07:15:41.362Z,20.97
2023-05-09T07:16:31.411Z,19.58
2023-05-09T07:17:30.316Z,20.04
2023-05-09T07:18:30.801Z,19.19
2023-05-09T07:19:31.232Z,22.45
2023-05-09T07:20:30.305Z,27.72
2023-05-09T07:21:30.265Z,19.39
2023-05-09T07:22:32.121Z,20.12
2023-05-09T07:23:30.300Z,20.05
2023-05-09T07:24:30.779Z,19.24
2023-05-09T07:25:30.219Z,20.14
2023-05-09T07:26:30.291Z,18.52
2023-05-09T07:27:30.490Z,17.87
2023-05-09T07:28:30.370Z,18.18
2023-05-09T07:29:30.208Z,17.36
2023-05-09T07:30:30.199Z,17.68
2023-05-09T07:31:30.276Z,36.19
2023-05-09T07:32:30.351Z,52.74
2023-05-09T07:33:30.214Z,20.65
2023-05-09T07:34:30.899Z,19.30
2023-05-09T07:35:30.175Z,23.78
2023-05-09T07:36:30.768Z,20.41
2023-05-09T07:37:31.777Z,16.52
2023-05-09T07:38:30.290Z,16.77
2023-05-09T07:39:30.762Z,16.08
2023-05-09T07:40:30.157Z,17.62
2023-05-09T07:41:30.147Z,18.95
2023-05-09T07:42:30.249Z,20.38
2023-05-09T07:43:30.191Z,17.33
2023-05-09T07:44:30.140Z,18.02
2023-05-09T07:45:30.147Z,16.74
2023-05-09T07:46:30.371Z,17.39
2023-05-09T07:47:30.199Z,17.34
2023-05-09T07:48:30.227Z,16.29
2023-05-09T07:49:30.274Z,16.81
2023-05-09T07:50:30.115Z,15.81
2023-05-09T07:51:30.060Z,15.94
2023-05-09T07:52:30.105Z,15.84
2023-05-09T07:53:30.090Z,16.64
2023-05-09T07:54:30.112Z,15.87
2023-05-09T07:55:30.048Z,16.02
2023-05-09T07:56:30.135Z,16.24
2023-05-09T07:57:30.065Z,15.19
2023-05-09T07:58:30.078Z,15.43
2023-05-09T07:59:30.086Z,14.65
2023-05-09T08:00:30.061Z,13.60
2023-05-09T08:01:30.074Z,12.62
2023-05-09T08:02:30.155Z,12.91
2023-05-09T08:03:30.125Z,15.07
2023-05-09T08:04:30.280Z,15.02
2023-05-09T08:05:30.180Z,15.37
2023-05-09T08:06:30.228Z,13.10
2023-05-09T08:07:30.240Z,14.21
2023-05-09T08:08:30.297Z,13.54
2023-05-09T08:09:30.289Z,12.42
2023-05-09T08:10:30.368Z,12.36
2023-05-09T08:11:30.334Z,12.74
2023-05-09T08:12:30.408Z,13.05
2023-05-09T08:13:30.528Z,11.74
2023-05-09T08:14:30.489Z,11.74
2023-05-09T08:15:30.545Z,11.66
2023-05-09T08:16:30.732Z,11.38
2023-05-09T08:17:30.621Z,9.99
2023-05-09T08:18:30.753Z,9.50
2023-05-09T08:19:30.718Z,13.30
2023-05-09T08:20:30.826Z,20.91
2023-05-09T08:21:31.315Z,21.98
2023-05-09T08:22:30.995Z,11.29
2023-05-09T08:23:30.920Z,9.74
2023-05-09T08:24:30.898Z,10.70
2023-05-09T08:25:30.921Z,11.14
2023-05-09T08:26:31.017Z,10.65
2023-05-09T08:27:31.099Z,10.10
2023-05-09T08:28:31.032Z,11.02
2023-05-09T08:29:31.044Z,10.78
2023-05-09T08:30:31.107Z,10.42
2023-05-09T08:31:31.159Z,11.21
2023-05-09T08:32:31.211Z,8.79
2023-05-09T08:33:31.412Z,10.21
2023-05-09T08:34:31.197Z,9.45
2023-05-09T08:35:31.203Z,8.43
2023-05-09T08:36:31.334Z,10.17
2023-05-09T08:37:31.331Z,9.22
2023-05-09T08:38:31.809Z,9.00
2023-05-09T08:39:32.293Z,8.84
2023-05-09T08:40:31.391Z,8.68
2023-05-09T08:41:31.562Z,8.85
2023-05-09T08:42:31.430Z,8.22
2023-05-09T08:43:31.442Z,11.14
2023-05-09T08:44:31.571Z,6.69
2023-05-09T08:45:31.525Z,6.28
2023-05-09T08:46:31.600Z,9.61
2023-05-09T08:47:31.642Z,6.60
2023-05-09T08:48:32.048Z,6.71
2023-05-09T08:49:31.813Z,5.92
2023-05-09T08:50:31.774Z,7.19
2023-05-09T08:51:31.798Z,6.49
2023-05-09T08:52:31.914Z,6.68
2023-05-09T08:53:31.866Z,5.54
2023-05-09T08:54:32.297Z,5.75
2023-05-09T08:55:31.938Z,6.12
2023-05-09T08:56:31.976Z,6.69
2023-05-09T08:57:32.009Z,6.20
2023-05-09T08:58:32.130Z,6.55
2023-05-09T08:59:32.145Z,6.49
2023-05-09T09:00:32.233Z,6.60
2023-05-09T09:01:32.285Z,5.42
2023-05-09T09:02:32.558Z,5.24
2023-05-09T09:03:32.304Z,4.83
2023-05-09T09:04:32.350Z,4.39
2023-05-09T09:05:41.397Z,5.00
2023-05-09T09:06:33.354Z,5.29
2023-05-09T09:07:32.312Z,4.11
2023-05-09T09:08:33.363Z,3.50
2023-05-09T09:09:32.388Z,3.58
2023-05-09T09:10:32.346Z,4.08
2023-05-09T09:11:32.338Z,3.83
2023-05-09T09:12:32.294Z,3.37
2023-05-09T09:13:32.328Z,3.79
2023-05-09T09:14:32.307Z,3.43
2023-05-09T09:15:32.297Z,3.30
2023-05-09T09:16:32.386Z,3.50
2023-05-09T09:17:32.368Z,2.90
2023-05-09T09:18:32.306Z,2.39
2023-05-09T09:19:32.299Z,3.13
2023-05-09T09:20:32.250Z,3.16
2023-05-09T09:21:32.274Z,3.16
2023-05-09T09:22:32.247Z,2.94
2023-05-09T09:23:32.344Z,2.86
2023-05-09T09:24:32.362Z,2.06
2023-05-09T09:25:32.282Z,1.91
2023-05-09T09:26:32.340Z,1.60
2023-05-09T09:27:32.474Z,1.44
2023-05-09T09:28:32.378Z,2.06
2023-05-09T09:29:32.470Z,2.16
2023-05-09T09:30:32.419Z,2.35
2023-05-09T09:31:32.495Z,4.06
2023-05-09T09:32:32.563Z,19.08
2023-05-09T09:33:32.585Z,9.76
2023-05-09T09:34:34.349Z,5.21
2023-05-09T09:35:32.600Z,2.48
2023-05-09T09:36:32.764Z,2.73
2023-05-09T09:37:33.343Z,2.34
2023-05-09T09:38:32.664Z,2.45
2023-05-09T09:39:32.646Z,2.39
2023-05-09T09:40:32.799Z,3.10
2023-05-09T09:41:32.714Z,2.28
2023-05-09T09:42:32.702Z,2.62
2023-05-09T09:43:32.728Z,3.28
2023-05-09T09:44:32.814Z,2.94
2023-05-09T09:45:32.743Z,3.10
2023-05-09T09:46:32.767Z,3.66
2023-05-09T09:47:32.790Z,3.63
2023-05-09T09:48:32.771Z,3.49
2023-05-09T09:49:32.809Z,2.71
2023-05-09T09:50:32.933Z,2.54
2023-05-09T09:51:32.878Z,2.94
2023-05-09T09:52:32.955Z,2.60
2023-05-09T09:53:33.055Z,2.87
2023-05-09T09:54:33.299Z,2.49
2023-05-09T09:55:33.106Z,2.41
2023-05-09T09:56:33.156Z,1.73
2023-05-09T09:57:33.188Z,1.98
2023-05-09T09:58:33.181Z,1.74
2023-05-09T09:59:33.221Z,1.80
2023-05-09T10:00:33.262Z,1.69
2023-05-09T10:01:33.471Z,1.78
2023-05-09T10:02:33.372Z,1.90
2023-05-09T10:03:34.363Z,1.62
2023-05-09T10:04:33.434Z,2.19
2023-05-09T10:05:33.436Z,1.92
2023-05-09T10:06:33.460Z,1.88
2023-05-09T10:07:33.480Z,2.14
2023-05-09T10:08:33.545Z,2.17
2023-05-09T10:09:33.559Z,2.33
2023-05-09T10:10:33.593Z,2.29
2023-05-09T10:11:33.577Z,2.68
2023-05-09T10:12:33.714Z,2.50
2023-05-09T10:13:33.661Z,2.27
2023-05-09T10:14:35.351Z,2.29
2023-05-09T10:15:49.099Z,2.74
2023-05-09T10:16:43.747Z,2.84
2023-05-09T10:17:34.913Z,2.76
2023-05-09T10:18:33.998Z,3.92
2023-05-09T10:19:33.731Z,2.98
2023-05-09T10:20:33.721Z,2.34
2023-05-09T10:21:33.732Z,2.21
2023-05-09T10:22:33.710Z,2.03
2023-05-09T10:23:33.769Z,2.46
2023-05-09T10:24:33.697Z,2.59
2023-05-09T10:25:33.708Z,2.33
2023-05-09T10:26:34.298Z,2.56
2023-05-09T10:27:33.715Z,4.32
2023-05-09T10:28:33.725Z,2.68
2023-05-09T10:29:33.742Z,2.26
2023-05-09T10:30:34.193Z,2.44
2023-05-09T10:31:34.404Z,2.18
2023-05-09T10:32:33.641Z,2.00
2023-05-09T10:33:33.616Z,1.90
2023-05-09T10:34:33.612Z,1.43
2023-05-09T10:35:33.648Z,1.67
2023-05-09T10:36:33.613Z,2.16
2023-05-09T10:37:33.667Z,2.16
2023-05-09T10:38:33.585Z,1.88
2023-05-09T10:39:33.566Z,1.82
2023-05-09T10:40:33.587Z,1.95
2023-05-09T10:41:33.582Z,1.60
2023-05-09T10:42:33.566Z,1.52
2023-05-09T10:43:34.757Z,1.85
2023-05-09T10:44:33.735Z,1.87
2023-05-09T10:45:33.676Z,1.98
2023-05-09T10:46:33.736Z,2.12
2023-05-09T10:47:33.822Z,2.19
2023-05-09T10:48:33.740Z,2.01
2023-05-09T10:49:36.829Z,2.00
2023-05-09T10:50:33.780Z,2.15
2023-05-09T10:51:33.766Z,1.52
2023-05-09T10:52:35.347Z,1.98
2023-05-09T10:53:33.733Z,2.08
2023-05-09T10:54:33.805Z,2.20
2023-05-09T10:55:33.723Z,1.69
2023-05-09T10:56:33.735Z,1.67
2023-05-09T10:57:33.711Z,1.70
2023-05-09T10:58:33.799Z,1.53
2023-05-09T10:59:33.715Z,1.66
2023-05-09T11:00:33.732Z,1.32
2023-05-09T11:01:33.780Z,1.80
2023-05-09T11:02:34.313Z,1.98
2023-05-09T11:03:33.773Z,2.66
2023-05-09T11:04:34.344Z,1.91
2023-05-09T11:05:33.814Z,2.09
2023-05-09T11:06:33.827Z,1.92
2023-05-09T11:07:33.675Z,2.04
2023-05-09T11:08:34.318Z,2.23
2023-05-09T11:09:33.812Z,1.82
2023-05-09T11:10:33.646Z,1.86
2023-05-09T11:11:33.653Z,1.69
2023-05-09T11:12:33.627Z,1.23
2023-05-09T11:13:33.964Z,1.49
2023-05-09T11:14:33.848Z,1.50
2023-05-09T11:15:33.658Z,1.46
2023-05-09T11:16:33.699Z,1.39
2023-05-09T11:17:33.637Z,1.30
2023-05-09T11:18:33.601Z,1.19
2023-05-09T11:19:33.693Z,1.34
2023-05-09T11:20:33.674Z,0.99
2023-05-09T11:21:33.712Z,0.92
2023-05-09T11:22:33.764Z,0.93
2023-05-09T11:23:33.672Z,1.14
2023-05-09T11:24:34.468Z,1.14
2023-05-09T11:25:33.710Z,1.91
2023-05-09T11:26:33.790Z,1.49
2023-05-09T11:27:33.796Z,1.46
2023-05-09T11:28:33.837Z,2.26
2023-05-09T11:29:33.889Z,1.63
2023-05-09T11:30:33.864Z,1.05
2023-05-09T11:31:33.982Z,1.26
2023-05-09T11:32:34.946Z,1.43
2023-05-09T11:33:33.979Z,1.29
2023-05-09T11:34:33.987Z,1.35
2023-05-09T11:35:34.058Z,1.70
2023-05-09T11:36:34.120Z,1.44
2023-05-09T11:37:34.132Z,1.53
2023-05-09T11:38:34.160Z,1.40
2023-05-09T11:39:34.180Z,1.45
2023-05-09T11:40:34.220Z,1.54
2023-05-09T11:41:34.222Z,1.60
2023-05-09T11:42:34.250Z,1.51
2023-05-09T11:43:34.308Z,1.63
2023-05-09T11:44:34.376Z,1.56
2023-05-09T11:45:34.392Z,1.60
2023-05-09T11:46:34.384Z,1.22
2023-05-09T11:47:34.477Z,1.42
2023-05-09T11:48:34.517Z,1.33
2023-05-09T11:49:34.530Z,1.28
2023-05-09T11:50:34.494Z,1.42
2023-05-09T11:51:34.500Z,0.93
2023-05-09T11:52:34.531Z,0.94
2023-05-09T11:53:34.554Z,1.49
2023-05-09T11:54:34.619Z,3.61
2023-05-09T11:55:34.580Z,23.35
2023-05-09T11:56:34.598Z,5.85
2023-05-09T11:57:34.651Z,3.43
2023-05-09T11:58:34.745Z,1.90
2023-05-09T11:59:34.857Z,0.98
2023-05-09T12:00:34.790Z,0.99
2023-05-09T12:01:34.737Z,0.81
2023-05-09T12:02:34.883Z,1.56
2023-05-09T12:03:34.867Z,1.62
2023-05-09T12:04:35.039Z,1.03
2023-05-09T12:05:34.941Z,1.09
2023-05-09T12:06:34.893Z,0.99
2023-05-09T12:07:34.904Z,0.83
2023-05-09T12:08:34.923Z,2.17
2023-05-09T12:09:34.941Z,1.05
2023-05-09T12:10:34.960Z,1.11
2023-05-09T12:11:34.980Z,0.60
2023-05-09T12:12:34.996Z,0.74
2023-05-09T12:13:35.887Z,0.52
2023-05-09T12:14:35.388Z,0.65
2023-05-09T12:15:35.360Z,1.03
2023-05-09T12:16:35.239Z,1.16
2023-05-09T12:17:35.212Z,0.56
2023-05-09T12:18:35.212Z,0.84
2023-05-09T12:19:35.240Z,0.82
2023-05-09T12:20:35.354Z,0.97
2023-05-09T12:21:35.414Z,0.94
2023-05-09T12:22:35.338Z,1.33
2023-05-09T12:23:35.357Z,0.96
2023-05-09T12:24:35.376Z,0.85
2023-05-09T12:25:35.442Z,1.04
2023-05-09T12:26:35.459Z,0.85
2023-05-09T12:27:35.494Z,0.70
2023-05-09T12:28:35.500Z,1.01
2023-05-09T12:29:35.524Z,1.01
2023-05-09T12:30:35.585Z,0.93
2023-05-09T12:31:35.644Z,0.86
2023-05-09T12:32:35.698Z,11.79
2023-05-09T12:33:36.417Z,7.08
2023-05-09T12:34:35.714Z,6.58
2023-05-09T12:35:35.734Z,2.46
2023-05-09T12:36:35.885Z,2.55
2023-05-09T12:37:35.862Z,1.19
2023-05-09T12:38:35.838Z,0.62
2023-05-09T12:39:35.861Z,0.73
2023-05-09T12:40:43.967Z,0.58
2023-05-09T12:41:41.684Z,0.87
2023-05-09T12:42:36.919Z,0.80
2023-05-09T12:43:36.446Z,0.86
2023-05-09T12:44:35.851Z,1.00
2023-05-09T12:45:36.030Z,0.85
2023-05-09T12:46:37.537Z,0.75
2023-05-09T12:47:36.441Z,0.74
2023-05-09T12:48:35.867Z,0.63
2023-05-09T12:49:35.825Z,1.14
2023-05-09T12:50:35.896Z,0.96
2023-05-09T12:51:35.946Z,1.12
2023-05-09T12:52:39.748Z,1.51
2023-05-09T12:53:36.893Z,1.40
2023-05-09T12:54:35.890Z,1.05
2023-05-09T12:55:35.913Z,1.09
2023-05-09T12:56:35.888Z,0.99
2023-05-09T12:57:35.886Z,0.89
2023-05-09T12:58:35.961Z,1.05
2023-05-09T12:59:36.022Z,0.95
2023-05-09T13:00:36.034Z,0.89
2023-05-09T13:01:35.890Z,0.58